Time;durP1;ratioP1;P1;durP2;ratioP2;P2;SDS_P1;SDS_P2;PMS_P1;PMS_P2;Temp;Humidity;BMP_temperature;BMP_pressure;BME280_temperature;BME280_humidity;BME280_pressure;Samples;Min_cycle;Max_cycle;Signal;HPM_P1;HPM_P2
2023/11/16 00:00:51;;;;;;;1.00;0.80;;;;;;;;;;4922977;29;20039;-87
2023/11/16 00:03:37;;;;;;;1.10;0.90;;;;;;;;;;4943593;29;20027;-88
2023/11/16 00:09:18;;;;;;;5.25;1.00;;;;;;;;;;4944540;29;20058;-91
2023/11/16 00:11:53;;;;;;;1.30;0.95;;;;;;;;;;4970514;28;20035;-90
2023/11/16 00:14:31;;;;;;;1.00;0.90;;;;;;;;;;4953574;29;20043;-88
2023/11/16 00:17:18;;;;;;;0.68;0.68;;;;;;;;;;4940114;29;20027;-87
2023/11/16 00:26:37;;;;;;;1.83;1.27;;;;;;;;;;4927631;29;20055;-87
2023/11/16 00:35:40;;;;;;;1.17;0.80;;;;;;;;;;4937986;29;20613;-87
2023/11/16 00:38:51;;;;;;;1.25;0.95;;;;;;;;;;4940051;29;20046;-86
2023/11/16 00:47:51;;;;;;;0.70;0.70;;;;;;;;;;4884597;29;20036;-87
2023/11/16 00:50:58;;;;;;;0.80;0.70;;;;;;;;;;4859411;29;20153;-87
2023/11/16 00:53:48;;;;;;;1.13;0.90;;;;;;;;;;4869188;29;20055;-87
2023/11/16 00:56:30;;;;;;;1.00;0.80;;;;;;;;;;4872311;29;20042;-86
2023/11/16 00:58:59;;;;;;;1.00;0.80;;;;;;;;;;4873212;29;20045;-86
2023/11/16 01:01:29;;;;;;;1.40;0.90;;;;;;;;;;4892906;29;20056;-86
2023/11/16 01:04:01;;;;;;;0.70;0.68;;;;;;;;;;4909207;29;20032;-85
2023/11/16 01:06:38;;;;;;;0.93;0.80;;;;;;;;;;4894675;29;20032;-86
2023/11/16 01:09:25;;;;;;;1.13;0.85;;;;;;;;;;4910444;29;20025;-86
2023/11/16 01:11:53;;;;;;;1.13;0.98;;;;;;;;;;4922649;29;20051;-85
2023/11/16 01:14:22;;;;;;;0.90;0.80;;;;;;;;;;4948405;29;20044;-86
2023/11/16 01:16:53;;;;;;;0.88;0.80;;;;;;;;;;4949203;29;20040;-87
2023/11/16 01:19:28;;;;;;;0.73;0.73;;;;;;;;;;4949170;29;20074;-86
2023/11/16 01:22:00;;;;;;;0.68;0.68;;;;;;;;;;4907272;29;20148;-86
2023/11/16 01:24:34;;;;;;;1.80;1.00;;;;;;;;;;4982264;28;20050;-86
2023/11/16 01:30:12;;;;;;;1.02;0.82;;;;;;;;;;4999126;28;20114;-83
2023/11/16 01:32:46;;;;;;;0.80;0.80;;;;;;;;;;4988216;28;20034;-86
2023/11/16 01:35:12;;;;;;;0.77;0.70;;;;;;;;;;4990804;28;20094;-81
2023/11/16 01:38:08;;;;;;;1.13;0.85;;;;;;;;;;4953734;28;20553;-85
2023/11/16 01:40:52;;;;;;;0.80;0.70;;;;;;;;;;4985553;28;20030;-85
2023/11/16 01:43:22;;;;;;;0.95;0.77;;;;;;;;;;4944777;29;20032;-84
2023/11/16 01:46:11;;;;;;;0.60;0.60;;;;;;;;;;4945065;29;20496;-81
2023/11/16 01:49:09;;;;;;;0.60;0.60;;;;;;;;;;4928247;29;20040;-84
2023/11/16 01:51:57;;;;;;;0.90;0.80;;;;;;;;;;4963873;28;20038;-86
2023/11/16 02:03:37;;;;;;;0.52;0.50;;;;;;;;;;4985413;28;20049;-84
2023/11/16 02:09:39;;;;;;;0.60;0.60;;;;;;;;;;4945218;29;20067;-85
2023/11/16 02:12:25;;;;;;;0.70;0.63;;;;;;;;;;4907829;29;20048;-83
2023/11/16 02:15:35;;;;;;;0.68;0.68;;;;;;;;;;4918356;29;20068;-86
2023/11/16 02:22:00;;;;;;;0.70;0.70;;;;;;;;;;4887715;29;20078;-86
2023/11/16 02:25:03;;;;;;;0.63;0.63;;;;;;;;;;4869356;29;20185;-85
2023/11/16 02:31:18;;;;;;;0.70;0.70;;;;;;;;;;4854620;29;20095;-86
2023/11/16 02:34:31;;;;;;;0.75;0.70;;;;;;;;;;4855022;29;20034;-86
2023/11/16 02:37:48;;;;;;;0.82;0.70;;;;;;;;;;4792124;29;20032;-84
2023/11/16 02:40:35;;;;;;;1.95;0.90;;;;;;;;;;4783956;30;20116;-85
2023/11/16 02:46:26;;;;;;;0.70;0.70;;;;;;;;;;4800210;30;20042;-85
2023/11/16 02:52:27;;;;;;;0.65;0.65;;;;;;;;;;4787387;30;20047;-86
2023/11/16 02:55:25;;;;;;;0.80;0.73;;;;;;;;;;4796767;29;20044;-85
2023/11/16 02:58:30;;;;;;;0.70;0.70;;;;;;;;;;4800122;30;20358;-86
2023/11/16 03:01:24;;;;;;;0.82;0.73;;;;;;;;;;4764770;30;20033;-84
2023/11/16 03:04:31;;;;;;;0.90;0.77;;;;;;;;;;4739872;30;20119;-87
2023/11/16 03:06:59;;;;;;;0.75;0.70;;;;;;;;;;4728792;30;20045;-83
2023/11/16 03:09:26;;;;;;;0.70;0.70;;;;;;;;;;4729048;30;20041;-85
2023/11/16 03:11:55;;;;;;;0.60;0.60;;;;;;;;;;4714199;30;20159;-84
2023/11/16 03:14:32;;;;;;;1.27;0.80;;;;;;;;;;4728961;30;20045;-85
2023/11/16 03:17:10;;;;;;;0.50;0.50;;;;;;;;;;4743105;30;20513;-86
2023/11/16 03:20:09;;;;;;;0.50;0.50;;;;;;;;;;4704884;30;20044;-84
2023/11/16 03:23:22;;;;;;;0.90;0.85;;;;;;;;;;4764035;30;20033;-85
2023/11/16 03:26:35;;;;;;;0.50;0.50;;;;;;;;;;4729557;30;20041;-86
2023/11/16 03:29:34;;;;;;;;;;;;;;;;;;4677986;30;20034;-86
2023/11/16 03:32:51;;;;;;;0.60;0.60;;;;;;;;;;4674564;30;19943;-85
2023/11/16 03:35:48;;;;;;;0.70;0.63;;;;;;;;;;4647626;30;20036;-86
2023/11/16 03:38:41;;;;;;;0.80;0.70;;;;;;;;;;4689625;30;20031;-86
2023/11/16 03:53:50;;;;;;;0.50;0.50;;;;;;;;;;4726469;30;20044;-87
2023/11/16 03:57:04;;;;;;;0.60;0.60;;;;;;;;;;4739314;30;20033;-85
2023/11/16 04:00:30;;;;;;;0.82;0.77;;;;;;;;;;4783184;29;20516;-86
2023/11/16 04:03:22;;;;;;;1.08;0.90;;;;;;;;;;4787226;29;20076;-86
2023/11/16 04:06:01;;;;;;;0.70;0.70;;;;;;;;;;4815976;29;20043;-87
2023/11/16 04:09:05;;;;;;;0.80;0.70;;;;;;;;;;4787530;29;20046;-87
2023/11/16 04:12:00;;;;;;;1.00;0.85;;;;;;;;;;4806346;29;20040;-87
2023/11/16 04:15:19;;;;;;;0.95;0.73;;;;;;;;;;4823138;29;20034;-86
2023/11/16 04:18:08;;;;;;;1.20;0.90;;;;;;;;;;4812977;29;20032;-86
2023/11/16 04:21:02;;;;;;;0.85;0.77;;;;;;;;;;4797089;29;20119;-86
2023/11/16 04:29:47;;;;;;;0.70;0.70;;;;;;;;;;4819839;29;20038;-87
2023/11/16 04:32:19;;;;;;;1.92;1.40;;;;;;;;;;4822241;29;20037;-87
2023/11/16 04:38:21;;;;;;;1.42;1.08;;;;;;;;;;4966206;29;20042;-86
2023/11/16 04:40:52;;;;;;;0.95;0.80;;;;;;;;;;4912914;29;20048;-86
2023/11/16 04:43:57;;;;;;;0.80;0.80;;;;;;;;;;4910654;29;20146;-87
2023/11/16 04:46:46;;;;;;;0.70;0.68;;;;;;;;;;4889573;29;20049;-87
2023/11/16 04:49:48;;;;;;;1.23;1.13;;;;;;;;;;4871908;29;20038;-87
2023/11/16 04:52:49;;;;;;;0.70;0.68;;;;;;;;;;4871022;29;20042;-87
2023/11/16 04:55:27;;;;;;;0.60;0.60;;;;;;;;;;4918308;29;20032;-87
2023/11/16 04:58:37;;;;;;;1.10;0.80;;;;;;;;;;4874234;29;20067;-86
2023/11/16 05:01:29;;;;;;;1.10;1.00;;;;;;;;;;4818457;29;20031;-87
2023/11/16 05:08:05;;;;;;;1.75;1.13;;;;;;;;;;4748041;30;20101;-86
2023/11/16 05:10:52;;;;;;;2.25;0.88;;;;;;;;;;4724685;30;20050;-82
2023/11/16 05:19:39;;;;;;;;;;;;;;;;;;4711653;30;20028;-86
2023/11/16 05:22:33;;;;;;;1.25;1.15;;;;;;;;;;4763877;30;19910;-86
2023/11/16 05:25:44;;;;;;;1.00;0.88;;;;;;;;;;4778912;30;20043;-85
2023/11/16 05:28:52;;;;;;;2.00;1.05;;;;;;;;;;4775527;30;20028;-86
2023/11/16 05:38:04;;;;;;;;;;;;;;;;;;4712163;30;20035;-87
2023/11/16 05:47:58;;;;;;;1.38;0.98;;;;;;;;;;4854301;29;20055;-86
2023/11/16 05:53:33;;;;;;;0.75;0.75;;;;;;;;;;4868099;29;20040;-87
2023/11/16 05:59:44;;;;;;;1.10;0.90;;;;;;;;;;4853951;29;20121;-85
2023/11/16 06:03:08;;;;;;;0.60;0.60;;;;;;;;;;4871777;29;20037;-86
2023/11/16 06:09:03;;;;;;;0.70;0.70;;;;;;;;;;4884724;29;20060;-87
2023/11/16 06:12:23;;;;;;;4.70;1.42;;;;;;;;;;4838602;29;20031;-87
2023/11/16 06:15:37;;;;;;;0.80;0.75;;;;;;;;;;4838949;29;20039;-86
2023/11/16 06:18:11;;;;;;;0.90;0.85;;;;;;;;;;4807360;29;20058;-86
2023/11/16 06:24:20;;;;;;;0.85;0.77;;;;;;;;;;4785231;30;20039;-86
2023/11/16 06:33:22;;;;;;;;;;;;;;;;;;4784187;30;20398;-85
2023/11/16 06:36:16;;;;;;;1.38;1.27;;;;;;;;;;4768059;30;19910;-86
2023/11/16 06:38:56;;;;;;;2.22;1.30;;;;;;;;;;4750800;30;20048;-87
2023/11/16 06:48:08;;;;;;;3.03;2.13;;;;;;;;;;4749938;30;20039;-85
2023/11/16 06:51:25;;;;;;;1.75;1.02;;;;;;;;;;4801708;30;20055;-85
2023/11/16 06:54:42;;;;;;;1.85;1.23;;;;;;;;;;4763950;30;20580;-86
2023/11/16 07:03:35;;;;;;;;;;;;;;;;;;4790901;30;20034;-85
2023/11/16 07:06:22;;;;;;;3.20;1.05;;;;;;;;;;4878369;29;19912;-86
2023/11/16 07:12:36;;;;;;;5.45;1.10;;;;;;;;;;4873008;29;20069;-86
2023/11/16 07:15:53;;;;;;;1.10;1.00;;;;;;;;;;4836962;29;20034;-86
2023/11/16 07:21:58;;;;;;;1.30;0.90;;;;;;;;;;4825316;29;20069;-86
2023/11/16 07:25:20;;;;;;;1.88;1.15;;;;;;;;;;4838318;29;20050;-86
2023/11/16 07:28:15;;;;;;;0.90;0.85;;;;;;;;;;4819574;29;20034;-87
2023/11/16 07:31:30;;;;;;;1.10;1.00;;;;;;;;;;4773556;29;20119;-87
2023/11/16 07:34:56;;;;;;;0.82;0.80;;;;;;;;;;4801255;30;20090;-87
2023/11/16 07:37:59;;;;;;;1.10;0.90;;;;;;;;;;4800057;29;20035;-86
2023/11/16 07:40:29;;;;;;;1.50;1.40;;;;;;;;;;4772185;30;20120;-87
2023/11/16 07:43:23;;;;;;;1.20;0.90;;;;;;;;;;4770467;30;20049;-86
2023/11/16 07:46:09;;;;;;;0.80;0.70;;;;;;;;;;4758677;30;20123;-87
2023/11/16 07:48:47;;;;;;;1.30;1.00;;;;;;;;;;4751157;30;20119;-86
2023/11/16 07:52:20;;;;;;;1.17;1.00;;;;;;;;;;4759986;30;20042;-86
2023/11/16 07:55:06;;;;;;;1.50;1.25;;;;;;;;;;4761765;30;20095;-85
2023/11/16 07:58:05;;;;;;;0.80;0.80;;;;;;;;;;4764808;30;20066;-87
2023/11/16 08:03:44;;;;;;;1.17;1.08;;;;;;;;;;4744931;30;20108;-86
2023/11/16 08:06:42;;;;;;;1.17;0.80;;;;;;;;;;4742495;30;20079;-85
2023/11/16 08:09:50;;;;;;;1.30;1.20;;;;;;;;;;4773156;30;20028;-86
2023/11/16 08:12:30;;;;;;;1.00;0.90;;;;;;;;;;4779185;30;20035;-87
2023/11/16 08:15:29;;;;;;;0.90;0.80;;;;;;;;;;4779168;30;20090;-86
2023/11/16 08:18:01;;;;;;;1.40;1.05;;;;;;;;;;4777772;30;20072;-89
2023/11/16 08:20:43;;;;;;;1.00;0.90;;;;;;;;;;4778569;30;20055;-87
2023/11/16 08:23:22;;;;;;;1.38;0.85;;;;;;;;;;4788788;30;20445;-87
2023/11/16 08:25:59;;;;;;;1.50;1.10;;;;;;;;;;4787557;29;20050;-86
2023/11/16 08:28:55;;;;;;;1.25;1.08;;;;;;;;;;4829453;29;20039;-86
2023/11/16 08:31:44;;;;;;;1.38;1.00;;;;;;;;;;4815988;29;20035;-88
2023/11/16 08:34:11;;;;;;;0.80;0.80;;;;;;;;;;4840879;29;20117;-86
2023/11/16 08:36:39;;;;;;;1.80;1.45;;;;;;;;;;4850231;29;20451;-86
2023/11/16 08:39:08;;;;;;;1.02;0.88;;;;;;;;;;4894258;29;20601;-86
2023/11/16 08:41:34;;;;;;;0.90;0.77;;;;;;;;;;4941445;29;20055;-86
2023/11/16 08:44:08;;;;;;;0.95;0.80;;;;;;;;;;4945652;28;20053;-88
2023/11/16 08:46:55;;;;;;;1.05;0.90;;;;;;;;;;4906383;29;20040;-88
2023/11/16 08:49:24;;;;;;;0.75;0.70;;;;;;;;;;4911291;29;20028;-88
2023/11/16 08:51:58;;;;;;;1.27;0.80;;;;;;;;;;4934941;29;20092;-85
2023/11/16 08:54:27;;;;;;;2.85;1.20;;;;;;;;;;4934015;29;20044;-88
2023/11/16 08:57:06;;;;;;;1.00;0.80;;;;;;;;;;4930918;29;20047;-88
2023/11/16 08:59:58;;;;;;;0.95;0.82;;;;;;;;;;4933688;29;20108;-86
2023/11/16 09:02:25;;;;;;;1.98;1.50;;;;;;;;;;4934575;29;20043;-88
2023/11/16 09:04:55;;;;;;;1.08;0.90;;;;;;;;;;4918327;29;20051;-88
2023/11/16 09:07:22;;;;;;;0.90;0.70;;;;;;;;;;4932169;29;20072;-88
2023/11/16 09:09:49;;;;;;;1.10;0.90;;;;;;;;;;4932846;29;20043;-88
2023/11/16 09:12:22;;;;;;;1.63;1.10;;;;;;;;;;4932422;29;20040;-88
2023/11/16 09:14:50;;;;;;;0.70;0.70;;;;;;;;;;4953115;29;20042;-88
2023/11/16 09:17:31;;;;;;;1.13;0.93;;;;;;;;;;4952769;29;20042;-89
2023/11/16 09:19:58;;;;;;;1.30;0.93;;;;;;;;;;4921959;29;20096;-87
2023/11/16 09:22:53;;;;;;;1.27;0.90;;;;;;;;;;4948523;29;20100;-88
2023/11/16 09:29:12;;;;;;;0.98;0.82;;;;;;;;;;4972752;29;20067;-89
2023/11/16 09:32:05;;;;;;;0.95;0.77;;;;;;;;;;4974028;29;20111;-88
2023/11/16 09:34:42;;;;;;;1.02;0.82;;;;;;;;;;4975293;28;20050;-91
2023/11/16 10:00:55;;;;;;;0.85;0.70;;;;;;;;;;5071142;28;20053;-87
2023/11/16 10:03:36;;;;;;;0.88;0.70;;;;;;;;;;5059491;28;20503;-90
2023/11/16 10:06:23;;;;;;;0.82;0.73;;;;;;;;;;5099895;28;20035;-89
2023/11/16 10:08:53;;;;;;;1.20;0.90;;;;;;;;;;5091493;28;20044;-92
2023/11/16 10:19:06;;;;;;;0.90;0.77;;;;;;;;;;5103932;22;20067;-91
2023/11/16 10:29:51;;;;;;;0.95;0.80;;;;;;;;;;5087190;28;20046;-90
2023/11/16 10:42:48;;;;;;;0.80;0.70;;;;;;;;;;5099506;23;20053;-92
2023/11/16 10:45:15;;;;;;;0.90;0.70;;;;;;;;;;5060232;28;20062;-91
2023/11/16 10:58:15;;;;;;;1.10;1.00;;;;;;;;;;5440360;22;20060;-90
2023/11/16 11:00:46;;;;;;;0.93;0.80;;;;;;;;;;5057977;28;20088;-90
2023/11/16 11:06:44;;;;;;;0.70;0.70;;;;;;;;;;5014637;28;20046;-92
2023/11/16 11:09:52;;;;;;;1.00;0.90;;;;;;;;;;5015289;28;20062;-90
2023/11/16 11:12:41;;;;;;;0.85;0.70;;;;;;;;;;4999265;28;20026;-93
2023/11/16 12:05:32;;;;;;;1.38;0.88;;;;;;;;;;4938072;29;20059;-91
2023/11/16 12:11:33;;;;;;;1.10;0.80;;;;;;;;;;4938813;29;20099;-88
2023/11/16 12:14:14;;;;;;;0.75;0.63;;;;;;;;;;4899351;29;20037;-88
2023/11/16 12:16:45;;;;;;;0.70;0.70;;;;;;;;;;4881032;29;20041;-87
2023/11/16 12:19:21;;;;;;;0.70;0.70;;;;;;;;;;4897569;29;20052;-89
2023/11/16 12:21:49;;;;;;;1.20;1.05;;;;;;;;;;4866628;29;20513;-87
2023/11/16 12:24:20;;;;;;;0.70;0.70;;;;;;;;;;4882587;29;20045;-87
2023/11/16 12:26:53;;;;;;;0.73;0.70;;;;;;;;;;4881151;29;20073;-89
2023/11/16 12:29:27;;;;;;;0.70;0.70;;;;;;;;;;4849059;29;20526;-89
2023/11/16 12:32:30;;;;;;;0.60;0.60;;;;;;;;;;4878307;29;20090;-88
2023/11/16 12:37:58;;;;;;;0.80;0.70;;;;;;;;;;4897991;29;20067;-89
2023/11/16 12:40:28;;;;;;;0.93;0.80;;;;;;;;;;4885365;29;20052;-89
2023/11/16 12:43:21;;;;;;;0.73;0.70;;;;;;;;;;4898868;29;20186;-90
2023/11/16 12:45:55;;;;;;;2.08;1.25;;;;;;;;;;4799274;29;20043;-90
2023/11/16 12:48:48;;;;;;;0.85;0.85;;;;;;;;;;4829405;29;20077;-88
2023/11/16 12:51:25;;;;;;;1.05;0.80;;;;;;;;;;4844728;29;20021;-89
2023/11/16 12:54:15;;;;;;;2.78;1.23;;;;;;;;;;4825548;29;20128;-89
2023/11/16 12:57:05;;;;;;;1.15;1.05;;;;;;;;;;4826243;29;20038;-91
2023/11/16 12:59:55;;;;;;;1.13;1.02;;;;;;;;;;4807584;30;20129;-88
2023/11/16 13:02:22;;;;;;;0.90;0.80;;;;;;;;;;4826297;29;20121;-89
2023/11/16 13:04:55;;;;;;;1.30;0.95;;;;;;;;;;4841311;29;20491;-90
2023/11/16 13:07:24;;;;;;;1.88;0.90;;;;;;;;;;4844510;29;20047;-92
2023/11/16 13:10:14;;;;;;;0.70;0.70;;;;;;;;;;4835115;29;20045;-89
2023/11/16 13:13:04;;;;;;;1.85;0.90;;;;;;;;;;4855168;29;20041;-89
2023/11/16 13:16:17;;;;;;;0.73;0.73;;;;;;;;;;4840609;29;20079;-89
2023/11/16 13:18:52;;;;;;;0.65;0.60;;;;;;;;;;4826303;29;20100;-89
2023/11/16 13:25:14;;;;;;;0.75;0.68;;;;;;;;;;4806065;29;20038;-90
2023/11/16 13:27:59;;;;;;;1.50;0.95;;;;;;;;;;4809756;29;20084;-91
2023/11/16 13:33:17;;;;;;;2.38;1.23;;;;;;;;;;4802955;29;20038;-86
2023/11/16 13:35:52;;;;;;;0.90;0.70;;;;;;;;;;4802047;29;20067;-89
2023/11/16 13:38:22;;;;;;;0.85;0.70;;;;;;;;;;4802657;30;20051;-89
2023/11/16 13:40:53;;;;;;;0.80;0.70;;;;;;;;;;4801721;30;20051;-88
2023/11/16 13:46:36;;;;;;;0.77;0.68;;;;;;;;;;4819915;29;20049;-89
2023/11/16 13:49:06;;;;;;;0.70;0.70;;;;;;;;;;4841030;29;20055;-92
2023/11/16 13:51:33;;;;;;;0.77;0.70;;;;;;;;;;4856040;29;20068;-88
2023/11/16 13:54:06;;;;;;;0.95;0.80;;;;;;;;;;4855398;29;20034;-88
2023/11/16 13:56:37;;;;;;;0.70;0.70;;;;;;;;;;4875913;29;20034;-91
2023/11/16 13:59:22;;;;;;;0.50;0.50;;;;;;;;;;4863704;29;20066;-92
2023/11/16 14:02:10;;;;;;;0.60;0.60;;;;;;;;;;4862241;29;20029;-92
2023/11/16 14:08:13;;;;;;;1.33;0.98;;;;;;;;;;4895547;29;20059;-92
2023/11/16 14:11:29;;;;;;;0.60;0.60;;;;;;;;;;4905280;29;20025;-92
2023/11/16 14:14:27;;;;;;;0.88;0.82;;;;;;;;;;4879591;29;20040;-93
2023/11/16 14:20:31;;;;;;;0.55;0.55;;;;;;;;;;4880374;29;20028;-93
2023/11/16 14:22:59;;;;;;;1.05;0.80;;;;;;;;;;4844698;29;20065;-94
2023/11/16 14:25:31;;;;;;;1.05;0.80;;;;;;;;;;4832327;29;20076;-94
2023/11/16 14:31:37;;;;;;;0.70;0.70;;;;;;;;;;4792145;30;20070;-93
2023/11/16 14:34:06;;;;;;;1.25;0.90;;;;;;;;;;4793959;29;20119;-87
2023/11/16 14:36:54;;;;;;;0.98;0.80;;;;;;;;;;4779179;29;20054;-91
2023/11/16 14:42:34;;;;;;;0.82;0.75;;;;;;;;;;4775997;30;20074;-94
2023/11/16 14:45:15;;;;;;;0.73;0.70;;;;;;;;;;4745807;30;20040;-91
2023/11/16 14:48:01;;;;;;;0.93;0.80;;;;;;;;;;4739416;30;20018;-93
2023/11/16 14:50:29;;;;;;;1.30;1.00;;;;;;;;;;4700761;30;20086;-90
2023/11/16 14:52:59;;;;;;;1.08;0.75;;;;;;;;;;4714668;30;20033;-89
2023/11/16 15:09:10;;;;;;;0.88;0.70;;;;;;;;;;5778721;23;20020;31
2023/11/16 15:11:43;;;;;;;1.35;0.80;;;;;;;;;;4969261;29;20051;-92
2023/11/16 15:14:14;;;;;;;1.27;0.88;;;;;;;;;;4977970;29;20028;-90
2023/11/16 15:17:10;;;;;;;2.35;1.15;;;;;;;;;;4969172;29;20082;-86
2023/11/16 15:19:39;;;;;;;1.27;0.98;;;;;;;;;;4952666;29;20044;-90
2023/11/16 15:22:28;;;;;;;1.15;0.85;;;;;;;;;;4960523;29;20062;-92
2023/11/16 15:25:15;;;;;;;1.15;0.82;;;;;;;;;;4959185;29;20035;-92
2023/11/16 15:27:47;;;;;;;0.85;0.75;;;;;;;;;;4940563;29;20100;-88
2023/11/16 15:30:21;;;;;;;0.85;0.82;;;;;;;;;;4910391;29;20031;-89
2023/11/16 15:33:03;;;;;;;1.92;0.93;;;;;;;;;;4956848;29;20036;-90
2023/11/16 15:38:04;;;;;;;2.25;1.33;;;;;;;;;;5011283;28;20057;-88
2023/11/16 15:40:43;;;;;;;1.40;1.20;;;;;;;;;;5010063;28;20117;-87
2023/11/16 15:43:12;;;;;;;4.03;1.85;;;;;;;;;;4971287;29;20102;-89
2023/11/16 15:45:46;;;;;;;1.50;1.13;;;;;;;;;;4972479;29;20035;-90
2023/11/16 15:48:35;;;;;;;1.25;1.10;;;;;;;;;;4974204;29;20047;-92
2023/11/16 15:51:03;;;;;;;1.80;1.33;;;;;;;;;;4974435;29;20027;-89
2023/11/16 16:01:29;;;;;;;0.77;0.77;;;;;;;;;;5229215;23;20062;-91
2023/11/16 16:03:56;;;;;;;1.23;1.00;;;;;;;;;;4964205;28;20475;-89
2023/11/16 16:22:14;;;;;;;1.52;1.25;;;;;;;;;;5017405;28;20069;-91
2023/11/16 16:24:43;;;;;;;1.15;0.90;;;;;;;;;;5092755;23;20221;-90
2023/11/16 16:29:45;;;;;;;1.55;1.30;;;;;;;;;;5551499;23;21704;-91
2023/11/16 16:34:47;;;;;;;1.80;1.58;;;;;;;;;;5030980;23;20091;-91
2023/11/16 16:37:14;;;;;;;1.52;1.20;;;;;;;;;;5005767;28;20183;-91
2023/11/16 16:39:41;;;;;;;2.20;1.80;;;;;;;;;;5019571;28;20033;-91
2023/11/16 16:42:07;;;;;;;1.23;1.08;;;;;;;;;;5018592;28;20029;-91
2023/11/16 16:44:40;;;;;;;1.73;1.42;;;;;;;;;;4995659;28;20042;-89
2023/11/16 16:47:12;;;;;;;1.73;1.20;;;;;;;;;;4977204;28;20035;-90
2023/11/16 16:49:39;;;;;;;3.70;1.75;;;;;;;;;;4978593;28;20043;-91
2023/11/16 16:54:45;;;;;;;5.45;1.33;;;;;;;;;;5078895;23;19912;-90
2023/11/16 16:57:14;;;;;;;2.42;1.40;;;;;;;;;;4966392;28;20026;-90
2023/11/16 17:00:12;;;;;;;2.58;1.20;;;;;;;;;;4998362;28;20034;-87
2023/11/16 17:02:39;;;;;;;1.80;1.42;;;;;;;;;;4993620;28;20497;-89
2023/11/16 17:05:08;;;;;;;1.02;0.90;;;;;;;;;;4998617;28;20132;-89
2023/11/16 17:07:35;;;;;;;1.92;1.23;;;;;;;;;;4998168;28;20034;-90
2023/11/16 17:10:09;;;;;;;2.35;1.23;;;;;;;;;;4999414;28;20145;-90
2023/11/16 17:13:01;;;;;;;5.72;2.20;;;;;;;;;;5243262;23;20131;-91
2023/11/16 17:15:30;;;;;;;1.95;1.60;;;;;;;;;;5015981;28;20031;-90
2023/11/16 17:17:56;;;;;;;2.05;1.50;;;;;;;;;;5018297;28;20094;-90
2023/11/16 17:20:23;;;;;;;1.88;1.35;;;;;;;;;;5073529;23;20073;-90
2023/11/16 17:22:50;;;;;;;1.58;1.35;;;;;;;;;;4999338;28;20035;-90
2023/11/16 17:25:19;;;;;;;2.80;1.83;;;;;;;;;;4982213;28;20038;-91
2023/11/16 17:27:48;;;;;;;5.10;2.70;;;;;;;;;;4999536;28;20046;-88
2023/11/16 17:30:14;;;;;;;5.45;2.83;;;;;;;;;;5016207;28;20021;-90
2023/11/16 17:35:46;;;;;;;3.00;1.60;;;;;;;;;;5195465;23;20041;-91
2023/11/16 17:38:12;;;;;;;3.85;2.03;;;;;;;;;;5014815;28;20053;-89
2023/11/16 17:40:39;;;;;;;3.75;1.77;;;;;;;;;;5018870;28;20037;-89
2023/11/16 17:43:08;;;;;;;9.88;2.85;;;;;;;;;;5033848;28;20033;-91
2023/11/16 17:45:38;;;;;;;2.53;1.80;;;;;;;;;;5036923;28;20014;-92
2023/11/16 17:48:05;;;;;;;2.17;1.75;;;;;;;;;;5018285;28;20069;-91
2023/11/16 17:50:31;;;;;;;7.57;1.98;;;;;;;;;;5018782;28;20030;-90
2023/11/16 17:52:58;;;;;;;3.40;2.78;;;;;;;;;;5019744;28;20006;-90
2023/11/16 17:55:29;;;;;;;3.28;2.08;;;;;;;;;;5020178;28;20034;-90
2023/11/16 18:03:07;;;;;;;3.03;1.90;;;;;;;;;;5510906;23;20078;-90
2023/11/16 18:08:12;;;;;;;6.60;2.28;;;;;;;;;;5048986;23;20062;-91
2023/11/16 18:10:48;;;;;;;3.80;2.22;;;;;;;;;;4985648;28;20037;-91
2023/11/16 18:13:21;;;;;;;2.35;2.10;;;;;;;;;;4997599;28;20045;-87
2023/11/16 18:16:00;;;;;;;9.43;2.58;;;;;;;;;;4978385;28;20034;-86
2023/11/16 18:19:09;;;;;;;3.13;2.23;;;;;;;;;;5008612;28;20026;-88
2023/11/16 18:21:39;;;;;;;5.25;3.45;;;;;;;;;;5013249;28;20248;-88
2023/11/16 18:24:07;;;;;;;3.38;2.45;;;;;;;;;;5013434;28;20026;-90
2023/11/16 18:26:42;;;;;;;3.20;2.30;;;;;;;;;;4980408;28;20038;-89
2023/11/16 18:29:29;;;;;;;2.40;1.83;;;;;;;;;;4949011;28;20053;-89
2023/11/16 18:31:56;;;;;;;1.60;1.30;;;;;;;;;;5000581;28;20097;-86
2023/11/16 18:34:42;;;;;;;2.40;1.80;;;;;;;;;;4996631;28;20011;-88
2023/11/16 18:40:20;;;;;;;4.03;2.25;;;;;;;;;;4956588;29;20034;-89
2023/11/16 18:43:19;;;;;;;1.80;1.45;;;;;;;;;;4938566;29;20063;-87
2023/11/16 18:46:07;;;;;;;5.75;1.60;;;;;;;;;;4914017;29;20031;-88
2023/11/16 18:48:35;;;;;;;3.15;1.55;;;;;;;;;;4897901;29;20053;-88
2023/11/16 18:54:06;;;;;;;2.15;1.30;;;;;;;;;;4883905;29;20040;-89
2023/11/16 18:56:32;;;;;;;1.92;1.58;;;;;;;;;;4898536;29;20057;-85
2023/11/16 18:59:01;;;;;;;2.15;1.38;;;;;;;;;;4898955;29;20033;-88
2023/11/16 19:01:29;;;;;;;3.42;2.22;;;;;;;;;;4882493;29;20036;-89
2023/11/16 19:04:34;;;;;;;2.17;1.73;;;;;;;;;;4880444;29;20114;-88
2023/11/16 19:07:31;;;;;;;2.25;1.58;;;;;;;;;;4865541;29;20121;-91
2023/11/16 19:10:07;;;;;;;1.50;1.00;;;;;;;;;;4830239;29;20045;-91
2023/11/16 19:12:34;;;;;;;1.90;1.35;;;;;;;;;;4811408;29;20039;-91
2023/11/16 19:15:03;;;;;;;5.78;1.40;;;;;;;;;;4758668;30;20064;-90
2023/11/16 19:18:06;;;;;;;3.25;1.67;;;;;;;;;;4771201;30;20043;-89
2023/11/16 19:20:36;;;;;;;3.33;2.05;;;;;;;;;;4772355;30;20041;-87
2023/11/16 19:23:12;;;;;;;2.17;1.33;;;;;;;;;;4758319;30;20041;-89
2023/11/16 19:28:14;;;;;;;4.07;3.05;;;;;;;;;;5032595;23;20054;-91
2023/11/16 19:30:44;;;;;;;3.20;1.83;;;;;;;;;;5015015;28;20094;-91
2023/11/16 19:33:12;;;;;;;2.67;1.65;;;;;;;;;;4968520;28;20517;-90
2023/11/16 19:35:39;;;;;;;4.32;2.70;;;;;;;;;;4996516;28;20034;-90
2023/11/16 19:38:08;;;;;;;4.28;2.63;;;;;;;;;;4975421;28;20034;-90
2023/11/16 19:40:36;;;;;;;3.40;2.00;;;;;;;;;;4980640;28;20042;-90
2023/11/16 19:43:05;;;;;;;2.33;1.73;;;;;;;;;;5020802;23;20122;-89
2023/11/16 19:45:35;;;;;;;2.13;1.67;;;;;;;;;;5024006;28;20041;-91
2023/11/16 19:48:08;;;;;;;3.42;2.45;;;;;;;;;;5015287;28;20141;-91
2023/11/16 19:53:15;;;;;;;2.28;1.17;;;;;;;;;;4885009;23;20042;-79
2023/11/16 19:55:41;;;;;;;2.47;1.63;;;;;;;;;;4997823;28;20057;-84
2023/11/16 19:58:11;;;;;;;4.07;2.33;;;;;;;;;;4997675;28;20034;-80
2023/11/16 20:00:37;;;;;;;4.32;2.05;;;;;;;;;;4997254;28;20032;-81
2023/11/16 20:03:04;;;;;;;2.65;1.67;;;;;;;;;;4997403;28;20026;-79
2023/11/16 20:05:32;;;;;;;5.03;3.22;;;;;;;;;;5015302;28;20469;-83
2023/11/16 20:07:58;;;;;;;2.67;1.88;;;;;;;;;;4997353;28;20033;-82
2023/11/16 20:10:30;;;;;;;3.63;1.75;;;;;;;;;;4997477;28;20029;-80
2023/11/16 20:12:56;;;;;;;2.40;1.52;;;;;;;;;;4997571;28;20022;-83
2023/11/16 20:15:23;;;;;;;2.60;2.17;;;;;;;;;;4997266;28;20053;-79
2023/11/16 20:17:49;;;;;;;1.58;1.30;;;;;;;;;;5015417;28;20032;-82
2023/11/16 20:20:15;;;;;;;1.35;1.00;;;;;;;;;;4997623;28;20026;-83
2023/11/16 20:22:43;;;;;;;2.25;1.45;;;;;;;;;;4996669;28;20116;-84
2023/11/16 20:25:17;;;;;;;2.00;1.13;;;;;;;;;;4997532;28;20044;-82
2023/11/16 20:27:46;;;;;;;2.35;1.92;;;;;;;;;;5015103;28;20357;-85
2023/11/16 20:30:15;;;;;;;2.15;1.42;;;;;;;;;;4997229;28;20468;-79
2023/11/16 20:32:41;;;;;;;3.03;1.90;;;;;;;;;;5014801;28;20045;-84
2023/11/16 20:35:11;;;;;;;3.58;1.95;;;;;;;;;;5014516;28;20037;-79
2023/11/16 20:37:43;;;;;;;3.88;1.15;;;;;;;;;;4997209;28;20019;-80
2023/11/16 20:40:11;;;;;;;1.95;1.35;;;;;;;;;;5015128;28;20112;-81
2023/11/16 20:42:38;;;;;;;2.58;1.23;;;;;;;;;;5014551;28;20045;-80
2023/11/16 20:45:04;;;;;;;2.65;1.70;;;;;;;;;;4996915;28;20037;-80
2023/11/16 20:47:31;;;;;;;1.83;1.20;;;;;;;;;;5014854;28;20026;-79
2023/11/16 20:49:58;;;;;;;1.42;1.25;;;;;;;;;;4996990;28;20026;-79
2023/11/16 20:52:26;;;;;;;1.58;1.05;;;;;;;;;;4993253;28;20058;-80
2023/11/16 20:54:52;;;;;;;4.38;1.80;;;;;;;;;;4993080;28;20058;-80
2023/11/16 20:57:21;;;;;;;5.00;2.63;;;;;;;;;;4993439;28;20030;-79
2023/11/16 20:59:49;;;;;;;1.48;1.00;;;;;;;;;;4993455;28;20063;-79
2023/11/16 21:02:17;;;;;;;2.92;1.60;;;;;;;;;;4993529;28;20146;-79
2023/11/16 21:04:44;;;;;;;2.35;1.35;;;;;;;;;;4992923;28;20030;-80
2023/11/16 21:07:10;;;;;;;2.08;1.60;;;;;;;;;;4993191;28;20030;-79
2023/11/16 21:09:36;;;;;;;1.30;1.15;;;;;;;;;;4992936;28;20030;-80
2023/11/16 21:12:02;;;;;;;2.13;1.63;;;;;;;;;;4994532;28;20365;-77
2023/11/16 21:14:29;;;;;;;2.67;1.45;;;;;;;;;;4978567;28;20027;-79
2023/11/16 21:16:56;;;;;;;2.67;1.75;;;;;;;;;;4974107;28;20520;-79
2023/11/16 21:19:22;;;;;;;1.77;1.20;;;;;;;;;;4973328;28;20027;-80
2023/11/16 21:21:52;;;;;;;2.15;1.83;;;;;;;;;;4973799;28;20023;-77
2023/11/16 21:24:18;;;;;;;1.55;1.20;;;;;;;;;;4973584;28;20022;-78
2023/11/16 21:26:44;;;;;;;4.43;1.95;;;;;;;;;;4974567;28;20023;-78
2023/11/16 21:29:10;;;;;;;2.15;1.50;;;;;;;;;;4980555;28;20037;-77
2023/11/16 21:31:37;;;;;;;2.83;1.55;;;;;;;;;;4976330;28;20029;-77
2023/11/16 21:34:04;;;;;;;2.60;1.50;;;;;;;;;;4976836;28;20105;-77
2023/11/16 21:36:30;;;;;;;2.03;1.63;;;;;;;;;;4978271;28;20512;-77
2023/11/16 21:38:59;;;;;;;1.75;1.15;;;;;;;;;;4977378;28;20034;-78
2023/11/16 21:41:26;;;;;;;2.35;1.55;;;;;;;;;;4977994;28;20029;-78
2023/11/16 21:43:52;;;;;;;1.75;1.25;;;;;;;;;;4977797;28;20036;-78
2023/11/16 21:46:18;;;;;;;2.15;1.50;;;;;;;;;;4977403;28;20062;-78
2023/11/16 21:48:44;;;;;;;1.27;0.90;;;;;;;;;;4977489;28;20113;-78
2023/11/16 21:51:10;;;;;;;4.45;1.30;;;;;;;;;;4977421;28;20097;-77
2023/11/16 21:53:37;;;;;;;3.67;1.17;;;;;;;;;;4999869;28;20022;-78
2023/11/16 21:56:03;;;;;;;4.15;1.27;;;;;;;;;;5001623;28;20064;-77